Terminal Aerodrome Forecast
Issued by NWS

Home | Current Version | Previous Version | Text Only | Print | Product List | Glossary On
Versions: 1 2 3 4 5 6 7 8 9 10 11 12 13 14 15 16
000
FTUS45 KGJT 272345 AAB
TAFTEX
TAF AMD
KTEX 272345Z 2800/2824 26004KT P6SM VCTS BKN050CB
      TEMPO 2800/2804 TSRA BKN040CB
     FM280500 11004KT P6SM VCTS BKN110CB
     FM281000 10004KT P6SM BKN110
     FM281400 00000KT P6SM SCT100
     FM281700 VRB03KT P6SM VCTS BKN120CB
     FM282100 23006KT P6SM VCTS BKN120CB=

USA.gov is the U.S. government's official web portal to all federal, state and local government web resources and services.